createdAt,value
2023-01-20T00:01:37.941Z,2.70
2023-01-20T00:04:05.647Z,3.07
2023-01-20T00:06:33.270Z,3.00
2023-01-20T00:09:02.337Z,2.13
2023-01-20T00:11:30.263Z,3.53
2023-01-20T00:13:59.740Z,2.70
2023-01-20T00:16:27.421Z,3.30
2023-01-20T00:18:55.032Z,3.60
2023-01-20T00:21:22.635Z,3.53
2023-01-20T00:23:50.988Z,4.87
2023-01-20T00:26:21.186Z,3.33
2023-01-20T00:28:49.128Z,3.17
2023-01-20T00:31:24.444Z,2.93
2023-01-20T00:33:53.245Z,3.20
2023-01-20T00:36:21.240Z,2.63
2023-01-20T00:38:48.853Z,2.87
2023-01-20T00:41:16.519Z,3.53
2023-01-20T00:43:44.157Z,3.30
2023-01-20T00:46:11.976Z,2.80
2023-01-20T00:48:39.483Z,3.73
2023-01-20T00:51:08.121Z,3.53
2023-01-20T00:53:35.744Z,2.80
2023-01-20T00:56:03.028Z,3.83
2023-01-20T00:58:30.314Z,3.83
2023-01-20T01:00:58.714Z,3.63
2023-01-20T01:03:27.966Z,5.50
2023-01-20T01:06:04.891Z,5.43
2023-01-20T01:08:32.912Z,4.40
2023-01-20T01:11:00.177Z,5.00
2023-01-20T01:13:27.515Z,5.73
2023-01-20T01:15:54.797Z,5.03
2023-01-20T01:18:22.125Z,4.97
2023-01-20T01:20:49.449Z,6.93
2023-01-20T01:23:16.991Z,5.80
2023-01-20T01:25:44.326Z,5.90
2023-01-20T01:28:11.652Z,6.00
2023-01-20T01:30:39.072Z,6.03
2023-01-20T01:33:06.430Z,5.07
2023-01-20T01:35:33.730Z,6.83
2023-01-20T01:38:01.017Z,6.13
2023-01-20T01:40:28.324Z,5.87
2023-01-20T01:42:55.681Z,6.43
2023-01-20T01:45:27.285Z,5.00
2023-01-20T01:48:08.034Z,5.50
2023-01-20T01:50:48.529Z,4.70
2023-01-20T01:53:16.198Z,6.23
2023-01-20T01:55:47.967Z,5.67
2023-01-20T01:58:17.063Z,5.15
2023-01-20T02:00:44.614Z,4.43
2023-01-20T02:03:12.340Z,3.90
2023-01-20T02:05:39.902Z,4.60
2023-01-20T02:08:08.394Z,5.93
2023-01-20T02:10:35.852Z,5.37
2023-01-20T02:13:03.719Z,4.60
2023-01-20T02:16:04.196Z,5.67
2023-01-20T02:18:52.655Z,4.70
2023-01-20T02:22:04.426Z,5.83
2023-01-20T02:25:14.569Z,4.03
2023-01-20T02:28:19.631Z,5.50
2023-01-20T02:30:58.808Z,6.43
2023-01-20T02:34:00.293Z,7.37
2023-01-20T02:36:43.748Z,6.10
2023-01-20T02:39:27.388Z,5.63
2023-01-20T02:41:58.732Z,5.50
2023-01-20T02:44:49.228Z,6.40
2023-01-20T02:47:26.590Z,7.07
2023-01-20T02:49:53.850Z,6.47
2023-01-20T02:52:24.758Z,5.33
2023-01-20T02:54:56.542Z,4.63
2023-01-20T02:57:30.168Z,6.13
2023-01-20T03:00:08.050Z,5.53
2023-01-20T03:02:37.604Z,5.97
2023-01-20T03:05:09.433Z,7.37
2023-01-20T03:07:38.716Z,6.10
2023-01-20T03:10:08.694Z,5.80
2023-01-20T03:12:57.815Z,5.47
2023-01-20T03:15:29.839Z,6.33
2023-01-20T03:17:57.203Z,5.05
2023-01-20T03:20:24.686Z,5.93
2023-01-20T03:22:51.944Z,5.57
2023-01-20T03:25:20.486Z,6.53
2023-01-20T03:27:48.095Z,6.40
2023-01-20T03:30:18.505Z,5.93
2023-01-20T03:32:47.724Z,6.07
2023-01-20T03:35:18.643Z,6.93
2023-01-20T03:37:46.799Z,6.43
2023-01-20T03:40:15.063Z,8.17
2023-01-20T03:43:06.155Z,6.30
2023-01-20T03:45:52.036Z,6.50
2023-01-20T03:48:46.794Z,6.17
2023-01-20T03:51:35.069Z,6.83
2023-01-20T03:54:09.451Z,5.80
2023-01-20T03:57:03.975Z,6.97
2023-01-20T03:59:37.904Z,6.90
2023-01-20T04:02:09.227Z,7.90
2023-01-20T04:04:40.080Z,7.90
2023-01-20T04:07:13.719Z,6.13
2023-01-20T04:09:46.225Z,5.23
2023-01-20T04:12:13.594Z,6.97
2023-01-20T04:14:40.917Z,4.97
2023-01-20T04:17:08.406Z,6.10
2023-01-20T04:19:35.685Z,5.87
2023-01-20T04:22:12.882Z,5.00
2023-01-20T04:24:55.272Z,6.37
2023-01-20T04:27:22.567Z,7.00
2023-01-20T04:29:49.839Z,4.43
2023-01-20T04:32:17.243Z,7.83
2023-01-20T04:34:44.555Z,5.77
2023-01-20T04:37:11.895Z,7.67
2023-01-20T04:39:39.186Z,7.10
2023-01-20T04:42:06.510Z,3.87
2023-01-20T04:44:33.870Z,5.43
2023-01-20T04:47:01.171Z,5.53
2023-01-20T04:49:28.472Z,6.87
2023-01-20T04:51:55.745Z,6.37
2023-01-20T04:54:23.023Z,6.13
2023-01-20T04:56:50.446Z,7.37
2023-01-20T04:59:17.823Z,6.10
2023-01-20T05:01:45.194Z,6.23
2023-01-20T05:04:12.591Z,5.90
2023-01-20T05:06:42.662Z,7.17
2023-01-20T05:09:16.400Z,6.80
2023-01-20T05:11:44.164Z,7.93
2023-01-20T05:14:12.348Z,6.70
2023-01-20T05:16:39.650Z,5.87
2023-01-20T05:19:06.962Z,5.27
2023-01-20T05:21:34.226Z,6.50
2023-01-20T05:24:01.507Z,6.67
2023-01-20T05:26:28.937Z,6.23
2023-01-20T05:28:56.462Z,13.30
2023-01-20T05:31:23.847Z,8.57
2023-01-20T05:33:51.343Z,21.93
2023-01-20T05:36:18.634Z,14.97
2023-01-20T05:38:45.951Z,5.70
2023-01-20T05:41:13.495Z,6.50
2023-01-20T05:43:40.866Z,6.77
2023-01-20T05:46:08.318Z,6.33
2023-01-20T05:48:35.626Z,6.77
2023-01-20T05:51:02.944Z,5.83
2023-01-20T05:53:30.234Z,5.80
2023-01-20T05:56:02.311Z,7.67
2023-01-20T05:58:30.668Z,8.15
2023-01-20T06:01:12.274Z,6.17
2023-01-20T06:03:39.814Z,5.00
2023-01-20T06:06:08.925Z,6.33
2023-01-20T06:08:36.570Z,6.10
2023-01-20T06:11:03.918Z,5.80
2023-01-20T06:13:31.245Z,6.60
2023-01-20T06:15:58.806Z,9.87
2023-01-20T06:18:26.199Z,7.77
2023-01-20T06:20:58.249Z,7.07
2023-01-20T06:23:26.489Z,7.32
2023-01-20T06:26:13.273Z,6.90
2023-01-20T06:28:40.913Z,5.97
2023-01-20T06:31:11.176Z,8.07
2023-01-20T06:33:38.528Z,4.30
2023-01-20T06:36:06.713Z,7.27
2023-01-20T06:38:35.117Z,7.80
2023-01-20T06:41:04.560Z,7.47
2023-01-20T06:43:33.950Z,6.87
2023-01-20T06:46:07.024Z,7.10
2023-01-20T06:48:34.455Z,7.13
2023-01-20T06:51:13.776Z,8.13
2023-01-20T06:53:41.715Z,6.73
2023-01-20T06:56:10.938Z,7.77
2023-01-20T06:58:38.758Z,7.97
2023-01-20T07:01:08.886Z,7.13
2023-01-20T07:03:36.936Z,6.77
2023-01-20T07:06:26.743Z,5.60
2023-01-20T07:08:54.095Z,7.37
2023-01-20T07:11:21.393Z,6.33
2023-01-20T07:13:48.845Z,6.57
2023-01-20T07:16:16.271Z,7.00
2023-01-20T07:18:47.595Z,5.77
2023-01-20T07:21:15.108Z,6.60
2023-01-20T07:23:42.403Z,7.00
2023-01-20T07:26:11.850Z,8.73
2023-01-20T07:28:39.567Z,6.60
2023-01-20T07:31:08.629Z,4.73
2023-01-20T07:33:36.532Z,4.47
2023-01-20T07:36:04.140Z,4.90
2023-01-20T07:38:31.427Z,5.77
2023-01-20T07:41:05.119Z,5.20
2023-01-20T07:43:33.239Z,7.53
2023-01-20T07:46:02.332Z,5.63
2023-01-20T07:48:32.119Z,6.03
2023-01-20T07:51:03.011Z,5.57
2023-01-20T07:53:40.767Z,6.23
2023-01-20T07:56:13.668Z,6.50
2023-01-20T07:58:41.059Z,4.80
2023-01-20T08:01:19.383Z,6.50
2023-01-20T08:03:46.821Z,4.93
2023-01-20T08:06:16.436Z,7.13
2023-01-20T08:08:43.911Z,6.57
2023-01-20T08:11:14.397Z,5.03
2023-01-20T08:13:44.687Z,5.83
2023-01-20T08:16:15.424Z,7.63
2023-01-20T08:18:43.221Z,8.53
2023-01-20T08:21:19.522Z,6.50
2023-01-20T08:23:46.804Z,5.00
2023-01-20T08:26:14.430Z,6.40
2023-01-20T08:28:41.749Z,6.50
2023-01-20T08:31:11.708Z,6.10
2023-01-20T08:33:39.779Z,8.30
2023-01-20T08:36:10.125Z,7.80
2023-01-20T08:38:37.866Z,8.03
2023-01-20T08:41:10.823Z,7.07
2023-01-20T08:43:38.612Z,4.73
2023-01-20T08:46:08.789Z,5.73
2023-01-20T08:48:37.083Z,6.07
2023-01-20T08:51:07.663Z,6.27
2023-01-20T08:53:35.443Z,7.13
2023-01-20T08:56:06.477Z,7.07
2023-01-20T08:58:33.840Z,6.13
2023-01-20T09:01:01.389Z,6.63
2023-01-20T09:03:28.985Z,5.97
2023-01-20T09:05:59.227Z,6.60
2023-01-20T09:08:26.988Z,6.63
2023-01-20T09:10:54.357Z,5.97
2023-01-20T09:13:21.695Z,6.80
2023-01-20T09:15:53.013Z,5.40
2023-01-20T09:18:20.426Z,5.57
2023-01-20T09:20:47.734Z,7.20
2023-01-20T09:23:15.173Z,7.00
2023-01-20T09:25:42.649Z,5.07
2023-01-20T09:28:10.098Z,5.70
2023-01-20T09:30:39.662Z,4.37
2023-01-20T09:33:06.936Z,8.23
2023-01-20T09:35:34.225Z,5.87
2023-01-20T09:38:20.340Z,4.90
2023-01-20T09:41:46.764Z,6.17
2023-01-20T09:44:23.313Z,6.47
2023-01-20T09:47:21.232Z,7.23
2023-01-20T09:50:41.659Z,9.20
2023-01-20T09:53:35.920Z,9.63
2023-01-20T09:56:16.508Z,7.60
2023-01-20T09:59:30.244Z,10.97
2023-01-20T10:02:00.309Z,12.07
2023-01-20T10:04:41.647Z,6.40
2023-01-20T10:07:44.877Z,8.93
2023-01-20T10:10:23.719Z,8.60
2023-01-20T10:13:20.579Z,9.83
2023-01-20T10:15:53.398Z,6.83
2023-01-20T10:18:47.440Z,8.30
2023-01-20T10:21:20.883Z,4.57
2023-01-20T10:24:00.813Z,6.20
2023-01-20T10:26:38.753Z,5.53
2023-01-20T10:29:13.480Z,7.33
2023-01-20T10:31:51.621Z,5.10
2023-01-20T10:34:20.610Z,6.37
2023-01-20T10:36:56.087Z,6.17
2023-01-20T10:39:37.760Z,5.97
2023-01-20T10:42:13.373Z,6.13
2023-01-20T10:44:41.117Z,4.33
2023-01-20T10:47:30.209Z,6.90
2023-01-20T10:50:35.817Z,5.17
2023-01-20T10:53:40.230Z,5.60
2023-01-20T10:56:14.428Z,8.17
2023-01-20T10:58:45.098Z,4.60
2023-01-20T11:01:21.929Z,5.73
2023-01-20T11:03:49.959Z,5.93
2023-01-20T11:06:26.685Z,6.37
2023-01-20T11:08:55.419Z,6.47
2023-01-20T11:11:24.312Z,5.77
2023-01-20T11:13:53.044Z,6.77
2023-01-20T11:16:24.830Z,6.63
2023-01-20T11:18:58.141Z,6.78
2023-01-20T11:21:28.101Z,5.00
2023-01-20T11:23:56.684Z,6.47
2023-01-20T11:26:36.942Z,5.67
2023-01-20T11:29:28.044Z,6.70
2023-01-20T11:31:56.345Z,6.00
2023-01-20T11:34:35.091Z,5.97
2023-01-20T11:37:05.490Z,7.20
2023-01-20T11:39:42.557Z,5.07
2023-01-20T11:42:23.911Z,5.67
2023-01-20T11:45:19.828Z,6.67
2023-01-20T11:47:59.236Z,3.30
2023-01-20T11:50:35.385Z,5.67
2023-01-20T11:53:26.568Z,5.87
2023-01-20T11:56:05.040Z,7.03
2023-01-20T11:58:34.545Z,5.43
2023-01-20T12:01:04.755Z,5.77
2023-01-20T12:03:55.522Z,5.97
2023-01-20T12:06:52.123Z,7.97
2023-01-20T12:09:22.413Z,5.40
2023-01-20T12:12:02.333Z,5.57
2023-01-20T12:14:39.007Z,4.87
2023-01-20T12:17:21.368Z,4.63
2023-01-20T12:20:19.982Z,4.82
2023-01-20T12:23:21.185Z,5.30
2023-01-20T12:25:56.082Z,5.70
2023-01-20T12:28:54.035Z,4.03
2023-01-20T12:31:23.948Z,5.27
2023-01-20T12:34:02.889Z,4.43
2023-01-20T12:37:00.506Z,4.33
2023-01-20T12:39:46.620Z,4.23
2023-01-20T12:42:40.321Z,6.93
2023-01-20T12:45:59.395Z,4.53
2023-01-20T12:48:50.148Z,5.80
2023-01-20T12:51:32.515Z,5.30
2023-01-20T12:54:02.459Z,4.30
2023-01-20T12:57:04.624Z,5.27
2023-01-20T12:59:50.096Z,2.83
2023-01-20T13:02:20.085Z,4.33
2023-01-20T13:05:45.631Z,4.47
2023-01-20T13:08:26.269Z,2.90
2023-01-20T13:11:00.011Z,3.70
2023-01-20T13:13:56.849Z,2.63
2023-01-20T13:16:46.719Z,3.20
2023-01-20T13:19:27.278Z,2.87
2023-01-20T13:22:07.313Z,3.90
2023-01-20T13:24:39.605Z,3.70
2023-01-20T13:27:07.113Z,3.03
2023-01-20T13:29:37.403Z,3.80
2023-01-20T13:32:14.364Z,4.10
2023-01-20T13:34:41.920Z,2.97
2023-01-20T13:37:23.450Z,2.43
2023-01-20T13:39:51.413Z,3.70
2023-01-20T13:42:37.595Z,2.73
2023-01-20T13:45:14.658Z,2.50
2023-01-20T13:48:06.495Z,2.80
2023-01-20T13:50:39.070Z,3.33
2023-01-20T13:53:15.338Z,2.93
2023-01-20T13:55:45.280Z,3.33
2023-01-20T13:58:34.043Z,3.10
2023-01-20T14:01:04.203Z,3.70
2023-01-20T14:03:37.134Z,3.63
2023-01-20T14:06:20.254Z,3.77
2023-01-20T14:08:50.272Z,3.47
2023-01-20T14:11:23.592Z,3.63
2023-01-20T14:13:59.228Z,3.07
2023-01-20T14:16:36.897Z,3.60
2023-01-20T14:19:25.300Z,3.17
2023-01-20T14:21:57.586Z,3.03
2023-01-20T14:26:52.180Z,3.43
2023-01-20T14:29:22.122Z,2.77
2023-01-20T14:31:49.499Z,3.50
2023-01-20T14:34:27.198Z,2.80
2023-01-20T14:37:00.151Z,3.60
2023-01-20T14:39:29.347Z,2.67
2023-01-20T14:41:59.002Z,2.47
2023-01-20T14:44:33.189Z,2.80
2023-01-20T14:47:02.479Z,2.87
2023-01-20T14:49:49.236Z,2.33
2023-01-20T14:52:28.519Z,2.17
2023-01-20T14:54:56.644Z,3.27
2023-01-20T14:57:28.304Z,2.97
2023-01-20T15:00:21.683Z,2.60
2023-01-20T15:03:09.978Z,1.97
2023-01-20T15:05:40.325Z,3.03
2023-01-20T15:08:25.310Z,3.07
2023-01-20T15:11:21.524Z,2.70
2023-01-20T15:14:01.370Z,3.20
2023-01-20T15:16:44.037Z,4.77
2023-01-20T15:19:18.252Z,6.43
2023-01-20T15:21:56.621Z,4.27
2023-01-20T15:24:31.996Z,3.00
2023-01-20T15:27:00.759Z,3.90
2023-01-20T15:29:33.173Z,2.73
2023-01-20T15:32:02.506Z,4.67
2023-01-20T15:34:29.986Z,2.80
2023-01-20T15:36:57.579Z,2.83
2023-01-20T15:39:29.065Z,2.33
2023-01-20T15:41:59.746Z,2.67
2023-01-20T15:44:27.365Z,2.13
2023-01-20T15:46:57.360Z,2.93
2023-01-20T15:49:25.720Z,2.47
2023-01-20T15:51:53.354Z,3.10
2023-01-20T15:54:20.953Z,2.87
2023-01-20T15:56:48.278Z,3.90
2023-01-20T15:59:18.437Z,2.80
2023-01-20T16:01:51.602Z,2.23
2023-01-20T16:04:19.218Z,2.03
2023-01-20T16:06:46.614Z,3.53
2023-01-20T16:09:27.492Z,2.87
2023-01-20T16:11:56.835Z,3.57
2023-01-20T16:14:24.312Z,3.20
2023-01-20T16:16:51.621Z,3.13
2023-01-20T16:19:18.957Z,2.87
2023-01-20T16:21:46.279Z,3.87
2023-01-20T16:24:13.650Z,3.20
2023-01-20T16:27:01.923Z,3.10
2023-01-20T16:29:29.227Z,3.30
2023-01-20T16:31:56.641Z,3.97
2023-01-20T16:34:23.965Z,3.37
2023-01-20T16:36:51.341Z,3.23
2023-01-20T16:39:18.675Z,3.63
2023-01-20T16:41:49.245Z,3.70
2023-01-20T16:44:16.978Z,3.03
2023-01-20T16:46:47.195Z,2.33
2023-01-20T16:49:14.580Z,3.80
2023-01-20T16:51:42.007Z,2.90
2023-01-20T16:54:10.137Z,3.23
2023-01-20T16:56:37.503Z,2.83
2023-01-20T16:59:05.682Z,2.67
2023-01-20T17:01:33.346Z,3.30
2023-01-20T17:04:02.209Z,2.53
2023-01-20T17:06:32.581Z,2.30
2023-01-20T17:09:01.514Z,3.30
2023-01-20T17:11:40.392Z,3.53
2023-01-20T17:14:10.208Z,3.37
2023-01-20T17:16:38.329Z,3.73
2023-01-20T17:19:10.196Z,4.33
2023-01-20T17:21:39.220Z,3.25
2023-01-20T17:24:07.139Z,3.17
2023-01-20T17:26:36.975Z,3.63
2023-01-20T17:29:05.359Z,2.90
2023-01-20T17:31:35.526Z,3.93
2023-01-20T17:34:09.229Z,3.73
2023-01-20T17:36:36.755Z,3.20
2023-01-20T17:39:05.080Z,2.97
2023-01-20T17:41:33.024Z,2.50
2023-01-20T17:44:00.402Z,3.83
2023-01-20T17:46:29.601Z,3.30
2023-01-20T17:48:58.381Z,3.50
2023-01-20T17:51:27.753Z,3.43
2023-01-20T17:53:55.265Z,4.03
2023-01-20T17:56:23.183Z,4.73
2023-01-20T17:58:50.831Z,7.00
2023-01-20T18:01:29.880Z,6.73
2023-01-20T18:03:58.945Z,6.70
2023-01-20T18:06:27.629Z,5.53
2023-01-20T18:08:57.740Z,4.87
2023-01-20T18:11:27.061Z,3.80
2023-01-20T18:13:55.841Z,5.30
2023-01-20T18:16:27.182Z,4.47
2023-01-20T18:18:58.679Z,3.40
2023-01-20T18:21:31.195Z,3.95
2023-01-20T18:23:59.322Z,3.90
2023-01-20T18:26:31.597Z,3.50
2023-01-20T18:31:29.887Z,4.10
2023-01-20T18:34:00.126Z,3.77
2023-01-20T18:36:39.947Z,3.17
2023-01-20T18:39:24.538Z,2.63
2023-01-20T18:41:52.383Z,4.23
2023-01-20T18:44:19.904Z,3.93
2023-01-20T18:46:50.459Z,2.90
2023-01-20T18:49:19.602Z,2.97
2023-01-20T18:51:47.236Z,4.43
2023-01-20T18:54:20.867Z,3.63
2023-01-20T18:56:48.386Z,3.90
2023-01-20T18:59:15.738Z,3.53
2023-01-20T19:01:44.549Z,3.60
2023-01-20T19:04:13.520Z,3.03
2023-01-20T19:06:42.792Z,3.80
2023-01-20T19:09:10.681Z,3.57
2023-01-20T19:11:40.048Z,3.30
2023-01-20T19:14:11.611Z,4.43
2023-01-20T19:16:42.220Z,3.78
2023-01-20T19:19:10.943Z,3.67
2023-01-20T19:21:38.413Z,4.10
2023-01-20T19:24:07.781Z,4.20
2023-01-20T19:26:37.318Z,4.90
2023-01-20T19:29:07.191Z,4.63
2023-01-20T19:31:37.210Z,4.53
2023-01-20T19:34:08.540Z,4.20
2023-01-20T19:36:36.296Z,4.40
2023-01-20T19:39:04.130Z,5.17
2023-01-20T19:41:34.219Z,5.07
2023-01-20T19:44:03.156Z,5.03
2023-01-20T19:46:32.004Z,4.23
2023-01-20T19:49:00.125Z,3.73
2023-01-20T19:51:27.680Z,3.80
2023-01-20T19:53:57.991Z,4.53
2023-01-20T19:56:28.156Z,3.77
2023-01-20T19:58:56.445Z,4.23
2023-01-20T20:01:43.834Z,3.27
2023-01-20T20:04:13.116Z,3.67
2023-01-20T20:06:48.489Z,4.00
2023-01-20T20:09:21.136Z,4.57
2023-01-20T20:14:20.126Z,6.27
2023-01-20T20:16:53.762Z,3.80
2023-01-20T20:19:23.697Z,5.07
2023-01-20T20:21:51.051Z,4.23
2023-01-20T20:24:19.254Z,2.87
2023-01-20T20:26:47.417Z,3.70
2023-01-20T20:29:16.173Z,4.27
2023-01-20T20:31:43.708Z,3.70
2023-01-20T20:34:14.604Z,4.00
2023-01-20T20:36:42.152Z,3.23
2023-01-20T20:39:16.343Z,3.67
2023-01-20T20:41:47.928Z,3.23
2023-01-20T20:44:18.049Z,3.38
2023-01-20T20:46:45.720Z,4.37
2023-01-20T20:49:16.257Z,3.83
2023-01-20T20:51:43.849Z,3.73
2023-01-20T20:54:13.969Z,4.43
2023-01-20T20:56:44.330Z,4.77
2023-01-20T20:59:12.093Z,3.23
2023-01-20T21:01:40.139Z,4.23
2023-01-20T21:04:07.997Z,4.30
2023-01-20T21:06:35.800Z,3.20
2023-01-20T21:09:03.635Z,4.97
2023-01-20T21:11:31.417Z,3.57
2023-01-20T21:13:59.457Z,3.73
2023-01-20T21:16:28.170Z,4.83
2023-01-20T21:18:56.873Z,4.17
2023-01-20T21:21:25.129Z,5.40
2023-01-20T21:23:56.001Z,6.57
2023-01-20T21:26:28.132Z,7.37
2023-01-20T21:29:00.195Z,7.23
2023-01-20T21:31:28.176Z,6.00
2023-01-20T21:34:00.574Z,8.13
2023-01-20T21:36:30.389Z,7.60
2023-01-20T21:38:59.945Z,6.87
2023-01-20T21:41:27.760Z,6.87
2023-01-20T21:44:14.956Z,6.40
2023-01-20T21:46:43.094Z,5.50
2023-01-20T21:49:29.209Z,4.20
2023-01-20T21:52:15.906Z,2.70
2023-01-20T21:54:45.528Z,2.53
2023-01-20T21:57:14.271Z,3.80
2023-01-20T21:59:42.362Z,4.20
2023-01-20T22:02:12.417Z,5.10
2023-01-20T22:04:40.124Z,3.23
2023-01-20T22:07:08.042Z,4.10
2023-01-20T22:09:35.618Z,3.90
2023-01-20T22:12:03.690Z,3.87
2023-01-20T22:14:32.644Z,3.67
2023-01-20T22:17:00.456Z,4.13
2023-01-20T22:19:30.178Z,4.10
2023-01-20T22:21:58.264Z,3.70
2023-01-20T22:24:26.086Z,3.33
2023-01-20T22:26:54.322Z,3.70
2023-01-20T22:29:21.863Z,4.10
2023-01-20T22:32:01.667Z,2.67
2023-01-20T22:34:30.717Z,3.97
2023-01-20T22:37:01.722Z,3.27
2023-01-20T22:39:36.128Z,3.83
2023-01-20T22:42:09.739Z,2.87
2023-01-20T22:44:42.960Z,4.00
2023-01-20T22:47:18.010Z,3.42
2023-01-20T22:49:49.676Z,3.77
2023-01-20T22:54:50.840Z,3.60
2023-01-20T22:57:20.143Z,3.53
2023-01-20T22:59:54.172Z,3.97
2023-01-20T23:02:28.029Z,3.53
2023-01-20T23:05:03.043Z,2.97
2023-01-20T23:10:38.930Z,3.23
2023-01-20T23:16:02.244Z,4.13
2023-01-20T23:18:39.101Z,2.50
2023-01-20T23:21:23.514Z,4.30
2023-01-20T23:23:57.737Z,4.17
2023-01-20T23:26:29.080Z,4.57
2023-01-20T23:29:00.258Z,4.32
2023-01-20T23:31:40.919Z,3.05
2023-01-20T23:34:24.424Z,3.77
2023-01-20T23:37:04.495Z,5.13
2023-01-20T23:39:36.992Z,4.90
2023-01-20T23:45:10.020Z,3.77
2023-01-20T23:47:46.108Z,4.83
2023-01-20T23:50:17.066Z,3.20
2023-01-20T23:52:51.509Z,6.03
2023-01-20T23:55:25.929Z,4.67
2023-01-20T23:58:19.153Z,2.80
